sensor_id;sensor_type;location;lat;lon;timestamp;temperature;humidity
45329;DHT22;31063;48.356;10.896;2022-10-16T00:01:47;14.50;99.90
45329;DHT22;31063;48.356;10.896;2022-10-16T00:04:13;14.40;99.90
45329;DHT22;31063;48.356;10.896;2022-10-16T00:06:38;14.40;99.90
45329;DHT22;31063;48.356;10.896;2022-10-16T00:09:05;14.40;99.90
45329;DHT22;31063;48.356;10.896;2022-10-16T00:11:33;14.40;99.90
45329;DHT22;31063;48.356;10.896;2022-10-16T00:14:01;14.40;99.90
45329;DHT22;31063;48.356;10.896;2022-10-16T00:16:28;14.30;99.90
45329;DHT22;31063;48.356;10.896;2022-10-16T00:18:54;14.30;99.90
45329;DHT22;31063;48.356;10.896;2022-10-16T00:21:22;14.30;99.90
45329;DHT22;31063;48.356;10.896;2022-10-16T00:23:51;14.30;99.90
45329;DHT22;31063;48.356;10.896;2022-10-16T00:26:18;14.30;99.90
45329;DHT22;31063;48.356;10.896;2022-10-16T00:28:48;14.30;99.90
45329;DHT22;31063;48.356;10.896;2022-10-16T00:31:15;14.20;99.90
45329;DHT22;31063;48.356;10.896;2022-10-16T00:33:41;14.20;99.90
45329;DHT22;31063;48.356;10.896;2022-10-16T00:36:09;14.20;99.90
45329;DHT22;31063;48.356;10.896;2022-10-16T00:38:35;14.20;99.90
45329;DHT22;31063;48.356;10.896;2022-10-16T00:41:01;14.20;99.90
45329;DHT22;31063;48.356;10.896;2022-10-16T00:51:34;14.20;99.90
45329;DHT22;31063;48.356;10.896;2022-10-16T00:54:01;14.20;99.90
45329;DHT22;31063;48.356;10.896;2022-10-16T00:56:27;14.20;99.90
45329;DHT22;31063;48.356;10.896;2022-10-16T00:58:53;14.20;99.90
45329;DHT22;31063;48.356;10.896;2022-10-16T01:01:19;14.20;99.90
45329;DHT22;31063;48.356;10.896;2022-10-16T01:03:44;14.10;99.90
45329;DHT22;31063;48.356;10.896;2022-10-16T01:06:28;14.20;99.90
45329;DHT22;31063;48.356;10.896;2022-10-16T01:09:14;14.20;99.90
45329;DHT22;31063;48.356;10.896;2022-10-16T01:17:12;14.20;99.90
45329;DHT22;31063;48.356;10.896;2022-10-16T01:22:16;14.10;99.90
45329;DHT22;31063;48.356;10.896;2022-10-16T01:24:46;14.10;99.90
45329;DHT22;31063;48.356;10.896;2022-10-16T01:27:17;14.20;99.90
45329;DHT22;31063;48.356;10.896;2022-10-16T01:37:48;14.10;99.90
45329;DHT22;31063;48.356;10.896;2022-10-16T01:40:18;14.10;99.90
45329;DHT22;31063;48.356;10.896;2022-10-16T01:42:49;14.10;99.90
45329;DHT22;31063;48.356;10.896;2022-10-16T01:45:19;14.00;99.90
45329;DHT22;31063;48.356;10.896;2022-10-16T01:47:46;14.00;99.90
45329;DHT22;31063;48.356;10.896;2022-10-16T01:50:14;14.00;99.90
45329;DHT22;31063;48.356;10.896;2022-10-16T01:52:45;13.90;99.90
45329;DHT22;31063;48.356;10.896;2022-10-16T01:55:16;13.90;99.90
45329;DHT22;31063;48.356;10.896;2022-10-16T01:57:46;13.80;99.90
45329;DHT22;31063;48.356;10.896;2022-10-16T02:00:13;13.80;99.90
45329;DHT22;31063;48.356;10.896;2022-10-16T02:02:44;13.80;99.90
45329;DHT22;31063;48.356;10.896;2022-10-16T02:05:26;13.80;99.90
45329;DHT22;31063;48.356;10.896;2022-10-16T02:07:54;13.80;99.90
45329;DHT22;31063;48.356;10.896;2022-10-16T02:10:20;13.80;99.90
45329;DHT22;31063;48.356;10.896;2022-10-16T02:12:52;13.80;99.90
45329;DHT22;31063;48.356;10.896;2022-10-16T02:15:19;13.80;99.90
45329;DHT22;31063;48.356;10.896;2022-10-16T02:17:45;13.80;99.90
45329;DHT22;31063;48.356;10.896;2022-10-16T02:20:10;13.80;99.90
45329;DHT22;31063;48.356;10.896;2022-10-16T02:22:41;13.80;99.90
45329;DHT22;31063;48.356;10.896;2022-10-16T02:25:27;13.80;99.90
45329;DHT22;31063;48.356;10.896;2022-10-16T02:28:16;13.80;99.90
45329;DHT22;31063;48.356;10.896;2022-10-16T02:30:45;13.80;99.90
45329;DHT22;31063;48.356;10.896;2022-10-16T02:33:14;13.80;99.90
45329;DHT22;31063;48.356;10.896;2022-10-16T02:35:41;13.80;99.90
45329;DHT22;31063;48.356;10.896;2022-10-16T02:38:09;13.80;99.90
45329;DHT22;31063;48.356;10.896;2022-10-16T02:40:35;13.80;99.90
45329;DHT22;31063;48.356;10.896;2022-10-16T02:43:03;13.80;99.90
45329;DHT22;31063;48.356;10.896;2022-10-16T02:45:29;13.80;99.90
45329;DHT22;31063;48.356;10.896;2022-10-16T02:47:55;13.80;99.90
45329;DHT22;31063;48.356;10.896;2022-10-16T02:50:21;13.80;99.90
45329;DHT22;31063;48.356;10.896;2022-10-16T02:52:47;13.70;99.90
45329;DHT22;31063;48.356;10.896;2022-10-16T02:55:13;13.80;99.90
45329;DHT22;31063;48.356;10.896;2022-10-16T02:57:38;13.70;99.90
45329;DHT22;31063;48.356;10.896;2022-10-16T03:00:06;13.70;99.90
45329;DHT22;31063;48.356;10.896;2022-10-16T03:02:32;13.80;99.90
45329;DHT22;31063;48.356;10.896;2022-10-16T03:04:57;13.80;99.90
45329;DHT22;31063;48.356;10.896;2022-10-16T03:07:23;13.80;99.90
45329;DHT22;31063;48.356;10.896;2022-10-16T03:09:49;13.80;99.90
45329;DHT22;31063;48.356;10.896;2022-10-16T03:12:14;13.70;99.90
45329;DHT22;31063;48.356;10.896;2022-10-16T03:14:40;13.70;99.90
45329;DHT22;31063;48.356;10.896;2022-10-16T03:17:05;13.70;99.90
45329;DHT22;31063;48.356;10.896;2022-10-16T03:19:31;13.70;99.90
45329;DHT22;31063;48.356;10.896;2022-10-16T03:21:57;13.70;99.90
45329;DHT22;31063;48.356;10.896;2022-10-16T03:24:23;13.70;99.90
45329;DHT22;31063;48.356;10.896;2022-10-16T03:26:48;13.80;99.90
45329;DHT22;31063;48.356;10.896;2022-10-16T03:29:14;13.70;99.90
45329;DHT22;31063;48.356;10.896;2022-10-16T03:31:40;13.70;99.90
45329;DHT22;31063;48.356;10.896;2022-10-16T03:34:05;13.70;99.90
45329;DHT22;31063;48.356;10.896;2022-10-16T03:36:31;13.70;99.90
45329;DHT22;31063;48.356;10.896;2022-10-16T03:38:57;13.70;99.90
45329;DHT22;31063;48.356;10.896;2022-10-16T03:41:22;13.70;99.90
45329;DHT22;31063;48.356;10.896;2022-10-16T03:43:48;13.70;99.90
45329;DHT22;31063;48.356;10.896;2022-10-16T03:46:13;13.70;99.90
45329;DHT22;31063;48.356;10.896;2022-10-16T03:48:39;13.70;99.90
45329;DHT22;31063;48.356;10.896;2022-10-16T03:51:05;13.70;99.90
45329;DHT22;31063;48.356;10.896;2022-10-16T03:53:31;13.70;99.90
45329;DHT22;31063;48.356;10.896;2022-10-16T03:55:56;13.70;99.90
45329;DHT22;31063;48.356;10.896;2022-10-16T03:58:22;13.70;99.90
45329;DHT22;31063;48.356;10.896;2022-10-16T04:00:48;13.70;99.90
45329;DHT22;31063;48.356;10.896;2022-10-16T04:03:13;13.70;99.90
45329;DHT22;31063;48.356;10.896;2022-10-16T04:05:39;13.70;99.90
45329;DHT22;31063;48.356;10.896;2022-10-16T04:08:05;13.70;99.90
45329;DHT22;31063;48.356;10.896;2022-10-16T04:10:31;13.80;99.90
45329;DHT22;31063;48.356;10.896;2022-10-16T04:12:56;13.80;99.90
45329;DHT22;31063;48.356;10.896;2022-10-16T04:15:25;13.80;99.90
45329;DHT22;31063;48.356;10.896;2022-10-16T04:17:51;13.80;99.90
45329;DHT22;31063;48.356;10.896;2022-10-16T04:20:18;13.80;99.90
45329;DHT22;31063;48.356;10.896;2022-10-16T04:22:44;13.80;99.90
45329;DHT22;31063;48.356;10.896;2022-10-16T04:25:10;13.80;99.90
45329;DHT22;31063;48.356;10.896;2022-10-16T04:27:36;13.80;99.90
45329;DHT22;31063;48.356;10.896;2022-10-16T04:30:03;13.80;99.90
45329;DHT22;31063;48.356;10.896;2022-10-16T04:32:29;13.80;99.90
45329;DHT22;31063;48.356;10.896;2022-10-16T04:34:54;13.80;99.90
45329;DHT22;31063;48.356;10.896;2022-10-16T04:37:24;13.80;99.90
45329;DHT22;31063;48.356;10.896;2022-10-16T04:39:50;13.80;99.90
45329;DHT22;31063;48.356;10.896;2022-10-16T04:42:16;13.70;99.90
45329;DHT22;31063;48.356;10.896;2022-10-16T04:44:41;13.70;99.90
45329;DHT22;31063;48.356;10.896;2022-10-16T04:47:07;13.70;99.90
45329;DHT22;31063;48.356;10.896;2022-10-16T04:49:33;13.70;99.90
45329;DHT22;31063;48.356;10.896;2022-10-16T04:51:58;13.70;99.90
45329;DHT22;31063;48.356;10.896;2022-10-16T04:54:24;13.70;99.90
45329;DHT22;31063;48.356;10.896;2022-10-16T04:56:50;13.70;99.90
45329;DHT22;31063;48.356;10.896;2022-10-16T04:59:18;13.60;99.90
45329;DHT22;31063;48.356;10.896;2022-10-16T05:01:44;13.60;99.90
45329;DHT22;31063;48.356;10.896;2022-10-16T05:04:10;13.60;99.90
45329;DHT22;31063;48.356;10.896;2022-10-16T05:06:37;13.60;99.90
45329;DHT22;31063;48.356;10.896;2022-10-16T05:09:07;13.60;99.90
45329;DHT22;31063;48.356;10.896;2022-10-16T05:11:33;13.50;99.90
45329;DHT22;31063;48.356;10.896;2022-10-16T05:13:59;13.50;99.90
45329;DHT22;31063;48.356;10.896;2022-10-16T05:16:25;13.50;99.90
45329;DHT22;31063;48.356;10.896;2022-10-16T05:18:52;13.40;99.90
45329;DHT22;31063;48.356;10.896;2022-10-16T05:21:18;13.40;99.90
45329;DHT22;31063;48.356;10.896;2022-10-16T05:23:43;13.40;99.90
45329;DHT22;31063;48.356;10.896;2022-10-16T05:26:09;13.40;99.90
45329;DHT22;31063;48.356;10.896;2022-10-16T05:28:35;13.40;99.90
45329;DHT22;31063;48.356;10.896;2022-10-16T05:31:05;13.30;99.90
45329;DHT22;31063;48.356;10.896;2022-10-16T05:33:31;13.30;99.90
45329;DHT22;31063;48.356;10.896;2022-10-16T05:35:56;13.30;99.90
45329;DHT22;31063;48.356;10.896;2022-10-16T05:38:22;13.30;99.90
45329;DHT22;31063;48.356;10.896;2022-10-16T05:40:52;13.30;99.90
45329;DHT22;31063;48.356;10.896;2022-10-16T05:43:21;13.40;99.90
45329;DHT22;31063;48.356;10.896;2022-10-16T05:46:06;13.30;99.90
45329;DHT22;31063;48.356;10.896;2022-10-16T05:48:32;13.40;99.90
45329;DHT22;31063;48.356;10.896;2022-10-16T05:51:06;13.30;99.90
45329;DHT22;31063;48.356;10.896;2022-10-16T05:53:34;13.30;99.90
45329;DHT22;31063;48.356;10.896;2022-10-16T05:56:01;13.30;99.90
45329;DHT22;31063;48.356;10.896;2022-10-16T05:58:32;13.40;99.90
45329;DHT22;31063;48.356;10.896;2022-10-16T06:01:06;13.40;99.90
45329;DHT22;31063;48.356;10.896;2022-10-16T06:03:33;13.30;99.90
45329;DHT22;31063;48.356;10.896;2022-10-16T06:05:58;13.40;99.90
45329;DHT22;31063;48.356;10.896;2022-10-16T06:08:24;13.30;99.90
45329;DHT22;31063;48.356;10.896;2022-10-16T06:11:04;13.40;99.90
45329;DHT22;31063;48.356;10.896;2022-10-16T06:13:29;13.40;99.90
45329;DHT22;31063;48.356;10.896;2022-10-16T06:15:57;13.40;99.90
45329;DHT22;31063;48.356;10.896;2022-10-16T06:18:24;13.40;99.90
45329;DHT22;31063;48.356;10.896;2022-10-16T06:20:50;13.50;99.90
45329;DHT22;31063;48.356;10.896;2022-10-16T06:23:15;13.50;99.90
45329;DHT22;31063;48.356;10.896;2022-10-16T06:25:41;13.50;99.90
45329;DHT22;31063;48.356;10.896;2022-10-16T06:28:06;13.50;99.90
45329;DHT22;31063;48.356;10.896;2022-10-16T06:30:32;13.60;99.90
45329;DHT22;31063;48.356;10.896;2022-10-16T06:32:57;13.60;99.90
45329;DHT22;31063;48.356;10.896;2022-10-16T06:35:23;13.70;99.90
45329;DHT22;31063;48.356;10.896;2022-10-16T06:37:49;13.70;99.90
45329;DHT22;31063;48.356;10.896;2022-10-16T06:40:15;13.80;99.90
45329;DHT22;31063;48.356;10.896;2022-10-16T06:42:41;13.80;99.90
45329;DHT22;31063;48.356;10.896;2022-10-16T06:45:07;13.80;99.90
45329;DHT22;31063;48.356;10.896;2022-10-16T06:47:33;13.90;99.90
45329;DHT22;31063;48.356;10.896;2022-10-16T06:49:58;13.90;99.90
45329;DHT22;31063;48.356;10.896;2022-10-16T06:52:24;13.90;99.90
45329;DHT22;31063;48.356;10.896;2022-10-16T06:54:50;14.00;99.90
45329;DHT22;31063;48.356;10.896;2022-10-16T06:57:16;14.10;99.90
45329;DHT22;31063;48.356;10.896;2022-10-16T06:59:41;14.10;99.90
45329;DHT22;31063;48.356;10.896;2022-10-16T07:02:08;14.20;99.90
45329;DHT22;31063;48.356;10.896;2022-10-16T07:04:36;14.20;99.90
45329;DHT22;31063;48.356;10.896;2022-10-16T07:07:01;14.20;99.90
45329;DHT22;31063;48.356;10.896;2022-10-16T07:09:27;14.30;99.90
45329;DHT22;31063;48.356;10.896;2022-10-16T07:11:53;14.40;99.90
45329;DHT22;31063;48.356;10.896;2022-10-16T07:14:20;14.50;99.90
45329;DHT22;31063;48.356;10.896;2022-10-16T07:16:47;14.60;99.90
45329;DHT22;31063;48.356;10.896;2022-10-16T07:19:13;14.70;99.90
45329;DHT22;31063;48.356;10.896;2022-10-16T07:21:41;14.70;99.90
45329;DHT22;31063;48.356;10.896;2022-10-16T07:24:11;14.80;99.90
45329;DHT22;31063;48.356;10.896;2022-10-16T07:26:38;14.90;99.90
45329;DHT22;31063;48.356;10.896;2022-10-16T07:29:16;14.90;99.90
45329;DHT22;31063;48.356;10.896;2022-10-16T07:31:42;15.00;99.90
45329;DHT22;31063;48.356;10.896;2022-10-16T07:34:08;15.10;99.90
45329;DHT22;31063;48.356;10.896;2022-10-16T07:36:34;15.20;99.90
45329;DHT22;31063;48.356;10.896;2022-10-16T07:39:00;15.30;99.90
45329;DHT22;31063;48.356;10.896;2022-10-16T07:41:26;15.30;99.90
45329;DHT22;31063;48.356;10.896;2022-10-16T07:43:52;15.40;99.90
45329;DHT22;31063;48.356;10.896;2022-10-16T07:46:20;15.50;99.90
45329;DHT22;31063;48.356;10.896;2022-10-16T07:48:47;15.60;99.90
45329;DHT22;31063;48.356;10.896;2022-10-16T07:51:21;15.60;99.90
45329;DHT22;31063;48.356;10.896;2022-10-16T07:53:47;15.70;99.90
45329;DHT22;31063;48.356;10.896;2022-10-16T07:56:15;15.80;99.90
45329;DHT22;31063;48.356;10.896;2022-10-16T07:58:40;15.90;99.90
45329;DHT22;31063;48.356;10.896;2022-10-16T08:01:11;16.00;99.90
45329;DHT22;31063;48.356;10.896;2022-10-16T08:03:37;16.00;99.90
45329;DHT22;31063;48.356;10.896;2022-10-16T08:06:03;16.10;99.90
45329;DHT22;31063;48.356;10.896;2022-10-16T08:08:29;16.20;99.90
45329;DHT22;31063;48.356;10.896;2022-10-16T08:10:55;16.30;99.90
45329;DHT22;31063;48.356;10.896;2022-10-16T08:13:21;16.40;99.90
45329;DHT22;31063;48.356;10.896;2022-10-16T08:15:47;16.50;99.90
45329;DHT22;31063;48.356;10.896;2022-10-16T08:18:14;16.50;99.90
45329;DHT22;31063;48.356;10.896;2022-10-16T08:20:40;16.60;99.90
45329;DHT22;31063;48.356;10.896;2022-10-16T08:23:06;16.70;99.90
45329;DHT22;31063;48.356;10.896;2022-10-16T08:25:35;16.70;99.90
45329;DHT22;31063;48.356;10.896;2022-10-16T08:28:07;16.80;99.90
45329;DHT22;31063;48.356;10.896;2022-10-16T08:30:33;16.90;99.90
45329;DHT22;31063;48.356;10.896;2022-10-16T08:32:59;16.90;99.90
45329;DHT22;31063;48.356;10.896;2022-10-16T08:35:25;17.00;99.90
45329;DHT22;31063;48.356;10.896;2022-10-16T08:37:51;17.10;99.90
45329;DHT22;31063;48.356;10.896;2022-10-16T08:40:20;17.20;99.90
45329;DHT22;31063;48.356;10.896;2022-10-16T08:45:29;17.40;99.90
45329;DHT22;31063;48.356;10.896;2022-10-16T08:48:10;17.60;99.90
45329;DHT22;31063;48.356;10.896;2022-10-16T08:50:39;17.80;99.90
45329;DHT22;31063;48.356;10.896;2022-10-16T08:53:06;17.90;99.90
45329;DHT22;31063;48.356;10.896;2022-10-16T08:55:43;18.10;99.90
45329;DHT22;31063;48.356;10.896;2022-10-16T08:58:16;18.20;99.90
45329;DHT22;31063;48.356;10.896;2022-10-16T09:00:44;18.40;99.90
45329;DHT22;31063;48.356;10.896;2022-10-16T09:14:18;19.10;99.90
45329;DHT22;31063;48.356;10.896;2022-10-16T09:16:55;19.20;99.90
45329;DHT22;31063;48.356;10.896;2022-10-16T09:19:28;19.40;99.90
45329;DHT22;31063;48.356;10.896;2022-10-16T09:21:55;19.50;99.90
45329;DHT22;31063;48.356;10.896;2022-10-16T09:24:25;19.70;99.90
45329;DHT22;31063;48.356;10.896;2022-10-16T09:26:51;19.80;99.90
45329;DHT22;31063;48.356;10.896;2022-10-16T09:29:19;19.90;99.90
45329;DHT22;31063;48.356;10.896;2022-10-16T09:31:46;20.10;99.90
45329;DHT22;31063;48.356;10.896;2022-10-16T09:34:32;20.20;99.90
45329;DHT22;31063;48.356;10.896;2022-10-16T09:37:05;20.30;99.90
45329;DHT22;31063;48.356;10.896;2022-10-16T09:39:45;20.40;99.90
45329;DHT22;31063;48.356;10.896;2022-10-16T09:42:18;20.50;99.90
45329;DHT22;31063;48.356;10.896;2022-10-16T09:44:48;20.60;99.90
45329;DHT22;31063;48.356;10.896;2022-10-16T09:47:26;20.60;99.90
45329;DHT22;31063;48.356;10.896;2022-10-16T09:50:00;20.70;99.90
45329;DHT22;31063;48.356;10.896;2022-10-16T09:52:28;20.80;99.90
45329;DHT22;31063;48.356;10.896;2022-10-16T09:55:00;20.90;99.90
45329;DHT22;31063;48.356;10.896;2022-10-16T09:57:27;20.90;99.90
45329;DHT22;31063;48.356;10.896;2022-10-16T09:59:55;20.90;99.90
45329;DHT22;31063;48.356;10.896;2022-10-16T10:02:37;21.00;99.90
45329;DHT22;31063;48.356;10.896;2022-10-16T10:05:05;21.00;99.90
45329;DHT22;31063;48.356;10.896;2022-10-16T10:07:39;21.10;99.90
45329;DHT22;31063;48.356;10.896;2022-10-16T10:10:21;21.20;99.90
45329;DHT22;31063;48.356;10.896;2022-10-16T10:12:47;21.20;99.90
45329;DHT22;31063;48.356;10.896;2022-10-16T10:15:13;21.20;99.90
45329;DHT22;31063;48.356;10.896;2022-10-16T10:17:53;21.30;99.90
45329;DHT22;31063;48.356;10.896;2022-10-16T10:22:54;21.40;99.90
45329;DHT22;31063;48.356;10.896;2022-10-16T10:26:06;21.40;99.90
45329;DHT22;31063;48.356;10.896;2022-10-16T10:31:26;21.60;99.90
45329;DHT22;31063;48.356;10.896;2022-10-16T10:34:20;21.60;99.90
45329;DHT22;31063;48.356;10.896;2022-10-16T10:36:58;21.70;99.90
45329;DHT22;31063;48.356;10.896;2022-10-16T10:39:32;21.70;99.90
45329;DHT22;31063;48.356;10.896;2022-10-16T10:42:14;21.80;99.90
45329;DHT22;31063;48.356;10.896;2022-10-16T10:47:45;21.80;99.90
45329;DHT22;31063;48.356;10.896;2022-10-16T10:50:23;21.90;99.90
45329;DHT22;31063;48.356;10.896;2022-10-16T11:03:30;22.10;99.90
45329;DHT22;31063;48.356;10.896;2022-10-16T11:09:13;22.20;99.90
45329;DHT22;31063;48.356;10.896;2022-10-16T11:14:18;22.50;99.90
45329;DHT22;31063;48.356;10.896;2022-10-16T11:17:06;22.60;99.90
45329;DHT22;31063;48.356;10.896;2022-10-16T11:19:49;22.60;99.90
45329;DHT22;31063;48.356;10.896;2022-10-16T11:22:36;22.80;99.90
45329;DHT22;31063;48.356;10.896;2022-10-16T11:30:54;23.00;99.90
45329;DHT22;31063;48.356;10.896;2022-10-16T11:33:38;23.10;99.90
45329;DHT22;31063;48.356;10.896;2022-10-16T11:36:10;23.10;99.90
45329;DHT22;31063;48.356;10.896;2022-10-16T11:41:20;23.30;99.90
45329;DHT22;31063;48.356;10.896;2022-10-16T11:49:42;23.40;99.90
45329;DHT22;31063;48.356;10.896;2022-10-16T11:52:30;23.40;99.90
45329;DHT22;31063;48.356;10.896;2022-10-16T11:55:23;23.40;99.90
45329;DHT22;31063;48.356;10.896;2022-10-16T11:57:53;23.40;99.90
45329;DHT22;31063;48.356;10.896;2022-10-16T12:00:23;23.50;99.90
45329;DHT22;31063;48.356;10.896;2022-10-16T12:06:27;23.50;99.30
45329;DHT22;31063;48.356;10.896;2022-10-16T12:08:33;23.60;99.40
45329;DHT22;31063;48.356;10.896;2022-10-16T12:11:09;23.70;99.90
45329;DHT22;31063;48.356;10.896;2022-10-16T12:13:38;23.80;98.80
45329;DHT22;31063;48.356;10.896;2022-10-16T12:18:43;23.90;98.00
45329;DHT22;31063;48.356;10.896;2022-10-16T12:21:10;24.00;97.50
45329;DHT22;31063;48.356;10.896;2022-10-16T12:23:51;24.00;97.20
45329;DHT22;31063;48.356;10.896;2022-10-16T12:26:42;24.00;95.70
45329;DHT22;31063;48.356;10.896;2022-10-16T12:29:59;23.90;93.70
45329;DHT22;31063;48.356;10.896;2022-10-16T12:32:00;23.90;92.20
45329;DHT22;31063;48.356;10.896;2022-10-16T12:34:41;24.00;92.30
45329;DHT22;31063;48.356;10.896;2022-10-16T12:39:52;23.90;88.90
45329;DHT22;31063;48.356;10.896;2022-10-16T12:44:53;23.90;88.20
45329;DHT22;31063;48.356;10.896;2022-10-16T12:49:52;23.90;87.70
45329;DHT22;31063;48.356;10.896;2022-10-16T12:54:59;23.80;87.40
45329;DHT22;31063;48.356;10.896;2022-10-16T13:00:26;23.70;83.90
45329;DHT22;31063;48.356;10.896;2022-10-16T13:06:22;23.80;83.00
45329;DHT22;31063;48.356;10.896;2022-10-16T13:11:59;23.90;81.80
45329;DHT22;31063;48.356;10.896;2022-10-16T13:20:11;24.10;83.00
45329;DHT22;31063;48.356;10.896;2022-10-16T13:25:43;24.20;80.50
45329;DHT22;31063;48.356;10.896;2022-10-16T13:28:11;24.30;79.20
45329;DHT22;31063;48.356;10.896;2022-10-16T13:30:45;24.30;81.40
45329;DHT22;31063;48.356;10.896;2022-10-16T13:33:37;24.40;82.50
45329;DHT22;31063;48.356;10.896;2022-10-16T13:36:05;24.40;80.00
45329;DHT22;31063;48.356;10.896;2022-10-16T13:38:32;24.40;77.90
45329;DHT22;31063;48.356;10.896;2022-10-16T13:43:36;24.30;76.70
45329;DHT22;31063;48.356;10.896;2022-10-16T13:46:05;24.30;78.10
45329;DHT22;31063;48.356;10.896;2022-10-16T13:48:32;24.30;79.50
45329;DHT22;31063;48.356;10.896;2022-10-16T13:51:02;24.40;77.00
45329;DHT22;31063;48.356;10.896;2022-10-16T13:53:31;24.40;76.10
45329;DHT22;31063;48.356;10.896;2022-10-16T13:55:56;24.40;75.90
45329;DHT22;31063;48.356;10.896;2022-10-16T13:58:22;24.40;75.30
45329;DHT22;31063;48.356;10.896;2022-10-16T14:00:56;24.40;74.40
45329;DHT22;31063;48.356;10.896;2022-10-16T14:03:23;24.50;75.80
45329;DHT22;31063;48.356;10.896;2022-10-16T14:06:03;24.60;74.40
45329;DHT22;31063;48.356;10.896;2022-10-16T14:08:31;24.60;74.80
45329;DHT22;31063;48.356;10.896;2022-10-16T14:10:59;24.70;79.70
45329;DHT22;31063;48.356;10.896;2022-10-16T14:13:44;24.80;78.30
45329;DHT22;31063;48.356;10.896;2022-10-16T14:16:26;24.80;78.10
45329;DHT22;31063;48.356;10.896;2022-10-16T14:19:03;24.80;77.00
45329;DHT22;31063;48.356;10.896;2022-10-16T14:21:32;24.80;75.20
45329;DHT22;31063;48.356;10.896;2022-10-16T14:23:58;24.80;77.50
45329;DHT22;31063;48.356;10.896;2022-10-16T14:26:27;24.80;77.30
45329;DHT22;31063;48.356;10.896;2022-10-16T14:29:12;24.70;78.30
45329;DHT22;31063;48.356;10.896;2022-10-16T14:31:38;24.70;75.30
45329;DHT22;31063;48.356;10.896;2022-10-16T14:36:53;24.60;74.60
45329;DHT22;31063;48.356;10.896;2022-10-16T14:39:23;24.60;76.60
45329;DHT22;31063;48.356;10.896;2022-10-16T14:41:51;24.60;76.90
45329;DHT22;31063;48.356;10.896;2022-10-16T14:44:18;24.60;78.90
45329;DHT22;31063;48.356;10.896;2022-10-16T14:46:46;24.50;78.60
45329;DHT22;31063;48.356;10.896;2022-10-16T14:51:38;24.50;80.40
45329;DHT22;31063;48.356;10.896;2022-10-16T14:54:11;24.50;82.20
45329;DHT22;31063;48.356;10.896;2022-10-16T14:56:48;24.50;83.30
45329;DHT22;31063;48.356;10.896;2022-10-16T14:59:39;24.60;81.10
45329;DHT22;31063;48.356;10.896;2022-10-16T15:02:36;24.60;77.70
45329;DHT22;31063;48.356;10.896;2022-10-16T15:05:27;24.70;78.40
45329;DHT22;31063;48.356;10.896;2022-10-16T15:10:26;24.50;81.40
45329;DHT22;31063;48.356;10.896;2022-10-16T15:12:53;24.50;83.20
45329;DHT22;31063;48.356;10.896;2022-10-16T15:15:37;24.30;81.40
45329;DHT22;31063;48.356;10.896;2022-10-16T15:18:05;24.30;82.70
45329;DHT22;31063;48.356;10.896;2022-10-16T15:20:36;24.20;82.90
45329;DHT22;31063;48.356;10.896;2022-10-16T15:23:17;24.20;83.60
45329;DHT22;31063;48.356;10.896;2022-10-16T15:25:51;24.10;83.50
45329;DHT22;31063;48.356;10.896;2022-10-16T15:28:18;24.10;83.60
45329;DHT22;31063;48.356;10.896;2022-10-16T15:30:44;24.00;84.50
45329;DHT22;31063;48.356;10.896;2022-10-16T15:33:15;24.00;87.10
45329;DHT22;31063;48.356;10.896;2022-10-16T15:35:41;24.00;85.20
45329;DHT22;31063;48.356;10.896;2022-10-16T15:38:11;23.90;87.60
45329;DHT22;31063;48.356;10.896;2022-10-16T15:40:37;23.90;87.80
45329;DHT22;31063;48.356;10.896;2022-10-16T15:43:03;23.80;87.50
45329;DHT22;31063;48.356;10.896;2022-10-16T15:45:29;23.70;86.30
45329;DHT22;31063;48.356;10.896;2022-10-16T15:47:54;23.70;88.30
45329;DHT22;31063;48.356;10.896;2022-10-16T15:50:20;23.60;88.50
45329;DHT22;31063;48.356;10.896;2022-10-16T15:52:45;23.60;89.20
45329;DHT22;31063;48.356;10.896;2022-10-16T15:55:12;23.50;90.30
45329;DHT22;31063;48.356;10.896;2022-10-16T15:57:39;23.40;90.20
45329;DHT22;31063;48.356;10.896;2022-10-16T16:00:12;23.30;90.50
45329;DHT22;31063;48.356;10.896;2022-10-16T16:02:39;23.30;91.20
45329;DHT22;31063;48.356;10.896;2022-10-16T16:05:05;23.20;91.90
45329;DHT22;31063;48.356;10.896;2022-10-16T16:07:34;23.10;92.30
45329;DHT22;31063;48.356;10.896;2022-10-16T16:10:00;23.00;92.70
45329;DHT22;31063;48.356;10.896;2022-10-16T16:12:26;23.00;93.00
45329;DHT22;31063;48.356;10.896;2022-10-16T16:14:52;22.90;94.10
45329;DHT22;31063;48.356;10.896;2022-10-16T16:17:18;22.80;94.80
45329;DHT22;31063;48.356;10.896;2022-10-16T16:19:45;22.80;95.00
45329;DHT22;31063;48.356;10.896;2022-10-16T16:22:10;22.70;95.60
45329;DHT22;31063;48.356;10.896;2022-10-16T16:24:36;22.60;95.80
45329;DHT22;31063;48.356;10.896;2022-10-16T16:27:01;22.50;96.40
45329;DHT22;31063;48.356;10.896;2022-10-16T16:29:27;22.40;96.60
45329;DHT22;31063;48.356;10.896;2022-10-16T16:31:53;22.30;97.00
45329;DHT22;31063;48.356;10.896;2022-10-16T16:34:24;22.20;97.90
45329;DHT22;31063;48.356;10.896;2022-10-16T16:36:50;22.20;99.10
45329;DHT22;31063;48.356;10.896;2022-10-16T16:39:15;22.10;99.30
45329;DHT22;31063;48.356;10.896;2022-10-16T16:41:41;22.10;99.20
45329;DHT22;31063;48.356;10.896;2022-10-16T16:44:09;22.00;98.90
45329;DHT22;31063;48.356;10.896;2022-10-16T16:46:36;22.00;99.40
45329;DHT22;31063;48.356;10.896;2022-10-16T16:49:02;21.90;99.90
45329;DHT22;31063;48.356;10.896;2022-10-16T16:51:29;21.80;99.90
45329;DHT22;31063;48.356;10.896;2022-10-16T16:53:55;21.80;99.90
45329;DHT22;31063;48.356;10.896;2022-10-16T16:56:22;21.70;99.90
45329;DHT22;31063;48.356;10.896;2022-10-16T16:58:49;21.60;99.90
45329;DHT22;31063;48.356;10.896;2022-10-16T17:01:15;21.50;99.90
45329;DHT22;31063;48.356;10.896;2022-10-16T17:03:43;21.50;99.90
45329;DHT22;31063;48.356;10.896;2022-10-16T17:06:13;21.40;99.90
45329;DHT22;31063;48.356;10.896;2022-10-16T17:08:40;21.30;99.90
45329;DHT22;31063;48.356;10.896;2022-10-16T17:11:05;21.20;99.90
45329;DHT22;31063;48.356;10.896;2022-10-16T17:13:33;21.20;99.90
45329;DHT22;31063;48.356;10.896;2022-10-16T17:16:02;21.10;99.90
45329;DHT22;31063;48.356;10.896;2022-10-16T17:18:28;21.00;99.90
45329;DHT22;31063;48.356;10.896;2022-10-16T17:20:53;20.90;99.90
45329;DHT22;31063;48.356;10.896;2022-10-16T17:23:19;20.90;99.90
45329;DHT22;31063;48.356;10.896;2022-10-16T17:25:46;20.70;99.90
45329;DHT22;31063;48.356;10.896;2022-10-16T17:28:13;20.70;99.90
45329;DHT22;31063;48.356;10.896;2022-10-16T17:30:40;20.60;99.90